sensor_id;sensor_type;location;lat;lon;timestamp;P1;durP1;ratioP1;P2;durP2;ratioP2
48849;SDS011;63210;53.370;6.770;2024-01-30T00:00:31;30.42;;;20.00;;
48849;SDS011;63210;53.370;6.770;2024-01-30T00:02:56;25.27;;;19.58;;
48849;SDS011;63210;53.370;6.770;2024-01-30T00:05:22;28.63;;;19.10;;
48849;SDS011;63210;53.370;6.770;2024-01-30T00:07:47;28.27;;;18.77;;
48849;SDS011;63210;53.370;6.770;2024-01-30T00:10:12;26.65;;;18.58;;
48849;SDS011;63210;53.370;6.770;2024-01-30T00:12:38;29.85;;;20.60;;
48849;SDS011;63210;53.370;6.770;2024-01-30T00:15:03;29.27;;;19.45;;
48849;SDS011;63210;53.370;6.770;2024-01-30T00:17:30;29.05;;;19.77;;
48849;SDS011;63210;53.370;6.770;2024-01-30T00:19:55;30.58;;;20.85;;
48849;SDS011;63210;53.370;6.770;2024-01-30T00:22:20;31.20;;;20.40;;
48849;SDS011;63210;53.370;6.770;2024-01-30T00:24:45;38.25;;;21.83;;
48849;SDS011;63210;53.370;6.770;2024-01-30T00:27:11;29.83;;;19.27;;
48849;SDS011;63210;53.370;6.770;2024-01-30T00:29:36;32.60;;;20.17;;
48849;SDS011;63210;53.370;6.770;2024-01-30T00:32:01;31.80;;;23.13;;
48849;SDS011;63210;53.370;6.770;2024-01-30T00:34:26;29.27;;;21.13;;
48849;SDS011;63210;53.370;6.770;2024-01-30T00:36:52;31.27;;;20.63;;
48849;SDS011;63210;53.370;6.770;2024-01-30T00:39:17;32.03;;;20.85;;
48849;SDS011;63210;53.370;6.770;2024-01-30T00:41:44;31.48;;;22.25;;
48849;SDS011;63210;53.370;6.770;2024-01-30T00:44:10;31.85;;;19.75;;
48849;SDS011;63210;53.370;6.770;2024-01-30T00:46:35;29.13;;;21.63;;
48849;SDS011;63210;53.370;6.770;2024-01-30T00:49:00;30.60;;;21.08;;
48849;SDS011;63210;53.370;6.770;2024-01-30T00:51:25;32.33;;;22.23;;
48849;SDS011;63210;53.370;6.770;2024-01-30T00:53:50;29.17;;;21.43;;
48849;SDS011;63210;53.370;6.770;2024-01-30T00:56:16;33.10;;;23.00;;
48849;SDS011;63210;53.370;6.770;2024-01-30T00:58:43;31.85;;;21.92;;
48849;SDS011;63210;53.370;6.770;2024-01-30T01:01:08;38.58;;;23.25;;
48849;SDS011;63210;53.370;6.770;2024-01-30T01:03:33;34.50;;;23.95;;
48849;SDS011;63210;53.370;6.770;2024-01-30T01:05:59;32.38;;;24.30;;
48849;SDS011;63210;53.370;6.770;2024-01-30T01:08:24;31.45;;;22.40;;
48849;SDS011;63210;53.370;6.770;2024-01-30T01:10:50;33.42;;;25.52;;
48849;SDS011;63210;53.370;6.770;2024-01-30T01:13:15;31.43;;;22.03;;
48849;SDS011;63210;53.370;6.770;2024-01-30T01:15:40;32.90;;;23.83;;
48849;SDS011;63210;53.370;6.770;2024-01-30T01:18:05;30.37;;;21.37;;
48849;SDS011;63210;53.370;6.770;2024-01-30T01:20:31;31.20;;;19.90;;
48849;SDS011;63210;53.370;6.770;2024-01-30T01:22:56;29.47;;;20.67;;
48849;SDS011;63210;53.370;6.770;2024-01-30T01:25:21;27.00;;;20.33;;
48849;SDS011;63210;53.370;6.770;2024-01-30T01:27:46;34.17;;;22.73;;
48849;SDS011;63210;53.370;6.770;2024-01-30T01:30:16;31.67;;;22.75;;
48849;SDS011;63210;53.370;6.770;2024-01-30T01:32:46;33.95;;;22.55;;
48849;SDS011;63210;53.370;6.770;2024-01-30T01:35:16;36.30;;;22.63;;
48849;SDS011;63210;53.370;6.770;2024-01-30T01:37:41;32.35;;;24.02;;
48849;SDS011;63210;53.370;6.770;2024-01-30T01:40:06;31.52;;;22.40;;
48849;SDS011;63210;53.370;6.770;2024-01-30T01:42:32;33.13;;;22.38;;
48849;SDS011;63210;53.370;6.770;2024-01-30T01:44:57;37.33;;;24.25;;
48849;SDS011;63210;53.370;6.770;2024-01-30T01:47:22;33.83;;;23.88;;
48849;SDS011;63210;53.370;6.770;2024-01-30T01:49:48;32.53;;;22.90;;
48849;SDS011;63210;53.370;6.770;2024-01-30T01:52:13;32.15;;;22.50;;
48849;SDS011;63210;53.370;6.770;2024-01-30T01:54:38;31.77;;;21.27;;
48849;SDS011;63210;53.370;6.770;2024-01-30T01:57:04;31.05;;;22.52;;
48849;SDS011;63210;53.370;6.770;2024-01-30T01:59:29;35.75;;;23.35;;
48849;SDS011;63210;53.370;6.770;2024-01-30T02:01:55;32.40;;;23.15;;
48849;SDS011;63210;53.370;6.770;2024-01-30T02:04:20;35.70;;;24.05;;
48849;SDS011;63210;53.370;6.770;2024-01-30T02:06:45;34.05;;;22.63;;
48849;SDS011;63210;53.370;6.770;2024-01-30T02:09:11;31.35;;;22.98;;
48849;SDS011;63210;53.370;6.770;2024-01-30T02:11:36;27.87;;;20.23;;
48849;SDS011;63210;53.370;6.770;2024-01-30T02:14:02;30.20;;;20.27;;
48849;SDS011;63210;53.370;6.770;2024-01-30T02:16:27;33.58;;;23.52;;
48849;SDS011;63210;53.370;6.770;2024-01-30T02:18:53;36.38;;;21.67;;
48849;SDS011;63210;53.370;6.770;2024-01-30T02:21:18;36.10;;;22.02;;
48849;SDS011;63210;53.370;6.770;2024-01-30T02:23:44;37.13;;;25.15;;
48849;SDS011;63210;53.370;6.770;2024-01-30T02:26:11;31.92;;;21.65;;
48849;SDS011;63210;53.370;6.770;2024-01-30T02:28:37;30.95;;;21.52;;
48849;SDS011;63210;53.370;6.770;2024-01-30T02:31:02;32.17;;;23.48;;
48849;SDS011;63210;53.370;6.770;2024-01-30T02:33:27;32.55;;;21.98;;
48849;SDS011;63210;53.370;6.770;2024-01-30T02:35:53;35.28;;;24.75;;
48849;SDS011;63210;53.370;6.770;2024-01-30T02:38:18;33.13;;;24.08;;
48849;SDS011;63210;53.370;6.770;2024-01-30T02:40:43;32.70;;;21.40;;
48849;SDS011;63210;53.370;6.770;2024-01-30T02:43:09;34.45;;;23.67;;
48849;SDS011;63210;53.370;6.770;2024-01-30T02:45:34;35.33;;;23.33;;
48849;SDS011;63210;53.370;6.770;2024-01-30T02:47:59;32.30;;;21.67;;
48849;SDS011;63210;53.370;6.770;2024-01-30T02:50:24;34.43;;;22.10;;
48849;SDS011;63210;53.370;6.770;2024-01-30T02:52:49;33.03;;;24.53;;
48849;SDS011;63210;53.370;6.770;2024-01-30T02:55:15;38.35;;;24.40;;
48849;SDS011;63210;53.370;6.770;2024-01-30T02:57:43;34.97;;;21.65;;
48849;SDS011;63210;53.370;6.770;2024-01-30T03:00:08;34.55;;;23.63;;
48849;SDS011;63210;53.370;6.770;2024-01-30T03:02:34;33.83;;;23.50;;
48849;SDS011;63210;53.370;6.770;2024-01-30T03:05:00;29.17;;;21.55;;
48849;SDS011;63210;53.370;6.770;2024-01-30T03:07:25;33.28;;;25.33;;
48849;SDS011;63210;53.370;6.770;2024-01-30T03:09:50;31.40;;;21.88;;
48849;SDS011;63210;53.370;6.770;2024-01-30T03:12:16;31.23;;;19.95;;
48849;SDS011;63210;53.370;6.770;2024-01-30T03:14:41;31.40;;;20.15;;
48849;SDS011;63210;53.370;6.770;2024-01-30T03:17:06;33.80;;;23.33;;
48849;SDS011;63210;53.370;6.770;2024-01-30T03:19:32;29.08;;;20.55;;
48849;SDS011;63210;53.370;6.770;2024-01-30T03:21:57;27.87;;;20.47;;
48849;SDS011;63210;53.370;6.770;2024-01-30T03:24:22;29.67;;;20.87;;
48849;SDS011;63210;53.370;6.770;2024-01-30T03:26:47;26.90;;;20.08;;
48849;SDS011;63210;53.370;6.770;2024-01-30T03:29:13;24.85;;;18.70;;
48849;SDS011;63210;53.370;6.770;2024-01-30T03:31:38;32.28;;;22.33;;
48849;SDS011;63210;53.370;6.770;2024-01-30T03:34:04;31.60;;;20.48;;
48849;SDS011;63210;53.370;6.770;2024-01-30T03:36:29;28.65;;;22.00;;
48849;SDS011;63210;53.370;6.770;2024-01-30T03:38:57;27.27;;;19.45;;
48849;SDS011;63210;53.370;6.770;2024-01-30T03:41:23;33.88;;;20.10;;
48849;SDS011;63210;53.370;6.770;2024-01-30T03:43:48;34.38;;;20.70;;
48849;SDS011;63210;53.370;6.770;2024-01-30T03:46:13;27.52;;;19.30;;
48849;SDS011;63210;53.370;6.770;2024-01-30T03:48:39;30.55;;;18.77;;
48849;SDS011;63210;53.370;6.770;2024-01-30T03:51:04;28.38;;;19.58;;
48849;SDS011;63210;53.370;6.770;2024-01-30T03:53:29;30.98;;;19.73;;
48849;SDS011;63210;53.370;6.770;2024-01-30T03:55:55;26.23;;;20.50;;
48849;SDS011;63210;53.370;6.770;2024-01-30T03:58:20;31.17;;;20.90;;
48849;SDS011;63210;53.370;6.770;2024-01-30T04:00:45;29.48;;;19.73;;
48849;SDS011;63210;53.370;6.770;2024-01-30T04:03:10;30.88;;;19.63;;
48849;SDS011;63210;53.370;6.770;2024-01-30T04:05:36;31.88;;;20.13;;
48849;SDS011;63210;53.370;6.770;2024-01-30T04:08:01;29.67;;;20.60;;
48849;SDS011;63210;53.370;6.770;2024-01-30T04:10:26;32.83;;;20.30;;
48849;SDS011;63210;53.370;6.770;2024-01-30T04:12:51;31.90;;;21.38;;
48849;SDS011;63210;53.370;6.770;2024-01-30T04:15:17;28.13;;;21.00;;
48849;SDS011;63210;53.370;6.770;2024-01-30T04:17:42;31.85;;;23.27;;
48849;SDS011;63210;53.370;6.770;2024-01-30T04:20:08;34.10;;;22.85;;
48849;SDS011;63210;53.370;6.770;2024-01-30T04:22:33;34.28;;;24.02;;
48849;SDS011;63210;53.370;6.770;2024-01-30T04:24:58;29.02;;;20.25;;
48849;SDS011;63210;53.370;6.770;2024-01-30T04:27:23;30.25;;;20.77;;
48849;SDS011;63210;53.370;6.770;2024-01-30T04:29:49;30.55;;;20.42;;
48849;SDS011;63210;53.370;6.770;2024-01-30T04:32:14;29.20;;;18.83;;
48849;SDS011;63210;53.370;6.770;2024-01-30T04:34:39;30.92;;;21.27;;
48849;SDS011;63210;53.370;6.770;2024-01-30T04:37:05;28.92;;;18.92;;
48849;SDS011;63210;53.370;6.770;2024-01-30T04:39:30;28.45;;;19.25;;
48849;SDS011;63210;53.370;6.770;2024-01-30T04:41:57;29.05;;;19.35;;
48849;SDS011;63210;53.370;6.770;2024-01-30T04:44:23;28.67;;;19.48;;
48849;SDS011;63210;53.370;6.770;2024-01-30T04:46:48;25.70;;;18.10;;
48849;SDS011;63210;53.370;6.770;2024-01-30T04:49:13;30.02;;;19.90;;
48849;SDS011;63210;53.370;6.770;2024-01-30T04:51:38;28.20;;;18.73;;
48849;SDS011;63210;53.370;6.770;2024-01-30T04:54:04;30.83;;;19.38;;
48849;SDS011;63210;53.370;6.770;2024-01-30T04:56:29;25.42;;;18.50;;
48849;SDS011;63210;53.370;6.770;2024-01-30T04:58:54;29.17;;;20.10;;
48849;SDS011;63210;53.370;6.770;2024-01-30T05:01:19;29.35;;;20.42;;
48849;SDS011;63210;53.370;6.770;2024-01-30T05:03:45;26.90;;;19.88;;
48849;SDS011;63210;53.370;6.770;2024-01-30T05:06:10;28.67;;;20.37;;
48849;SDS011;63210;53.370;6.770;2024-01-30T05:08:35;31.40;;;21.75;;
48849;SDS011;63210;53.370;6.770;2024-01-30T05:11:05;30.13;;;19.77;;
48849;SDS011;63210;53.370;6.770;2024-01-30T05:13:30;30.98;;;18.63;;
48849;SDS011;63210;53.370;6.770;2024-01-30T05:15:55;28.00;;;20.73;;
48849;SDS011;63210;53.370;6.770;2024-01-30T05:18:21;28.77;;;19.67;;
48849;SDS011;63210;53.370;6.770;2024-01-30T05:20:46;27.48;;;17.17;;
48849;SDS011;63210;53.370;6.770;2024-01-30T05:23:11;29.90;;;17.88;;
48849;SDS011;63210;53.370;6.770;2024-01-30T05:25:37;26.70;;;20.33;;
48849;SDS011;63210;53.370;6.770;2024-01-30T05:28:02;26.20;;;17.77;;
48849;SDS011;63210;53.370;6.770;2024-01-30T05:30:28;27.00;;;17.58;;
48849;SDS011;63210;53.370;6.770;2024-01-30T05:32:53;25.73;;;18.35;;
48849;SDS011;63210;53.370;6.770;2024-01-30T05:35:18;26.05;;;18.92;;
48849;SDS011;63210;53.370;6.770;2024-01-30T05:37:46;25.08;;;19.10;;
48849;SDS011;63210;53.370;6.770;2024-01-30T05:40:11;27.63;;;18.87;;
48849;SDS011;63210;53.370;6.770;2024-01-30T05:42:36;24.13;;;16.35;;
48849;SDS011;63210;53.370;6.770;2024-01-30T05:45:01;25.70;;;17.70;;
48849;SDS011;63210;53.370;6.770;2024-01-30T05:47:27;22.58;;;16.85;;
48849;SDS011;63210;53.370;6.770;2024-01-30T05:49:52;22.77;;;15.82;;
48849;SDS011;63210;53.370;6.770;2024-01-30T05:52:17;24.77;;;17.77;;
48849;SDS011;63210;53.370;6.770;2024-01-30T05:54:44;24.35;;;16.20;;
48849;SDS011;63210;53.370;6.770;2024-01-30T05:57:09;23.77;;;17.55;;
48849;SDS011;63210;53.370;6.770;2024-01-30T05:59:34;25.20;;;16.13;;
48849;SDS011;63210;53.370;6.770;2024-01-30T06:02:01;22.80;;;17.15;;
48849;SDS011;63210;53.370;6.770;2024-01-30T06:04:26;23.88;;;16.75;;
48849;SDS011;63210;53.370;6.770;2024-01-30T06:06:51;23.63;;;16.58;;
48849;SDS011;63210;53.370;6.770;2024-01-30T06:09:17;22.70;;;16.10;;
48849;SDS011;63210;53.370;6.770;2024-01-30T06:11:42;22.80;;;15.98;;
48849;SDS011;63210;53.370;6.770;2024-01-30T06:14:07;24.50;;;16.33;;
48849;SDS011;63210;53.370;6.770;2024-01-30T06:16:33;23.75;;;17.67;;
48849;SDS011;63210;53.370;6.770;2024-01-30T06:18:58;65.82;;;37.13;;
48849;SDS011;63210;53.370;6.770;2024-01-30T06:21:25;25.40;;;19.23;;
48849;SDS011;63210;53.370;6.770;2024-01-30T06:23:50;27.83;;;18.67;;
48849;SDS011;63210;53.370;6.770;2024-01-30T06:26:15;26.90;;;18.15;;
48849;SDS011;63210;53.370;6.770;2024-01-30T06:28:41;21.88;;;16.45;;
48849;SDS011;63210;53.370;6.770;2024-01-30T06:31:06;23.58;;;16.92;;
48849;SDS011;63210;53.370;6.770;2024-01-30T06:33:32;27.92;;;17.48;;
48849;SDS011;63210;53.370;6.770;2024-01-30T06:35:57;32.25;;;21.92;;
48849;SDS011;63210;53.370;6.770;2024-01-30T06:38:22;37.70;;;25.17;;
48849;SDS011;63210;53.370;6.770;2024-01-30T06:40:47;62.60;;;39.70;;
48849;SDS011;63210;53.370;6.770;2024-01-30T06:43:13;40.17;;;27.63;;
48849;SDS011;63210;53.370;6.770;2024-01-30T06:45:38;52.65;;;35.92;;
48849;SDS011;63210;53.370;6.770;2024-01-30T06:48:03;28.52;;;20.25;;
48849;SDS011;63210;53.370;6.770;2024-01-30T06:50:29;38.40;;;24.30;;
48849;SDS011;63210;53.370;6.770;2024-01-30T06:52:54;33.45;;;25.52;;
48849;SDS011;63210;53.370;6.770;2024-01-30T06:55:20;35.65;;;26.67;;
48849;SDS011;63210;53.370;6.770;2024-01-30T06:57:45;51.75;;;43.65;;
48849;SDS011;63210;53.370;6.770;2024-01-30T07:00:11;25.98;;;18.17;;
48849;SDS011;63210;53.370;6.770;2024-01-30T07:02:36;22.00;;;16.58;;
48849;SDS011;63210;53.370;6.770;2024-01-30T07:05:02;28.05;;;16.05;;
48849;SDS011;63210;53.370;6.770;2024-01-30T07:07:27;23.95;;;19.33;;
48849;SDS011;63210;53.370;6.770;2024-01-30T07:09:53;24.88;;;17.27;;
48849;SDS011;63210;53.370;6.770;2024-01-30T07:12:21;21.25;;;16.80;;
48849;SDS011;63210;53.370;6.770;2024-01-30T07:14:47;23.50;;;18.35;;
48849;SDS011;63210;53.370;6.770;2024-01-30T07:17:12;25.63;;;17.50;;
48849;SDS011;63210;53.370;6.770;2024-01-30T07:19:38;24.83;;;16.42;;
48849;SDS011;63210;53.370;6.770;2024-01-30T07:22:03;23.85;;;17.75;;
48849;SDS011;63210;53.370;6.770;2024-01-30T07:24:29;23.08;;;16.40;;
48849;SDS011;63210;53.370;6.770;2024-01-30T07:26:54;26.48;;;16.98;;
48849;SDS011;63210;53.370;6.770;2024-01-30T07:29:20;24.75;;;18.90;;
48849;SDS011;63210;53.370;6.770;2024-01-30T07:31:45;27.20;;;17.75;;
48849;SDS011;63210;53.370;6.770;2024-01-30T07:34:10;22.75;;;16.77;;
48849;SDS011;63210;53.370;6.770;2024-01-30T07:36:35;31.98;;;22.58;;
48849;SDS011;63210;53.370;6.770;2024-01-30T07:39:01;20.95;;;16.92;;
48849;SDS011;63210;53.370;6.770;2024-01-30T07:41:26;22.05;;;16.25;;
48849;SDS011;63210;53.370;6.770;2024-01-30T07:43:51;30.85;;;24.58;;
48849;SDS011;63210;53.370;6.770;2024-01-30T07:46:18;22.58;;;17.80;;
48849;SDS011;63210;53.370;6.770;2024-01-30T07:48:43;22.85;;;15.27;;
48849;SDS011;63210;53.370;6.770;2024-01-30T07:51:09;23.63;;;17.27;;
48849;SDS011;63210;53.370;6.770;2024-01-30T07:53:34;24.77;;;17.58;;
48849;SDS011;63210;53.370;6.770;2024-01-30T07:55:59;21.08;;;17.23;;
48849;SDS011;63210;53.370;6.770;2024-01-30T07:58:25;25.15;;;19.20;;
48849;SDS011;63210;53.370;6.770;2024-01-30T08:00:52;21.55;;;15.52;;
48849;SDS011;63210;53.370;6.770;2024-01-30T08:03:18;26.02;;;14.93;;
48849;SDS011;63210;53.370;6.770;2024-01-30T08:05:43;23.95;;;15.40;;
48849;SDS011;63210;53.370;6.770;2024-01-30T08:08:09;27.13;;;14.77;;
48849;SDS011;63210;53.370;6.770;2024-01-30T08:10:34;19.90;;;14.57;;
48849;SDS011;63210;53.370;6.770;2024-01-30T08:12:59;23.40;;;14.52;;
48849;SDS011;63210;53.370;6.770;2024-01-30T08:15:25;21.50;;;14.95;;
48849;SDS011;63210;53.370;6.770;2024-01-30T08:17:50;18.70;;;14.10;;
48849;SDS011;63210;53.370;6.770;2024-01-30T08:20:20;20.80;;;14.90;;
48849;SDS011;63210;53.370;6.770;2024-01-30T08:22:46;24.50;;;15.50;;
48849;SDS011;63210;53.370;6.770;2024-01-30T08:25:11;20.80;;;14.33;;
48849;SDS011;63210;53.370;6.770;2024-01-30T08:27:36;22.10;;;14.35;;
48849;SDS011;63210;53.370;6.770;2024-01-30T08:30:04;22.73;;;16.05;;
48849;SDS011;63210;53.370;6.770;2024-01-30T08:32:29;23.30;;;14.50;;
48849;SDS011;63210;53.370;6.770;2024-01-30T08:34:54;24.58;;;14.95;;
48849;SDS011;63210;53.370;6.770;2024-01-30T08:37:20;19.23;;;14.98;;
48849;SDS011;63210;53.370;6.770;2024-01-30T08:39:45;23.13;;;14.50;;
48849;SDS011;63210;53.370;6.770;2024-01-30T08:42:10;20.27;;;15.43;;
48849;SDS011;63210;53.370;6.770;2024-01-30T08:44:36;21.17;;;16.20;;
48849;SDS011;63210;53.370;6.770;2024-01-30T08:47:01;22.25;;;14.52;;
48849;SDS011;63210;53.370;6.770;2024-01-30T08:49:28;22.42;;;14.32;;
48849;SDS011;63210;53.370;6.770;2024-01-30T08:51:53;22.02;;;15.57;;
48849;SDS011;63210;53.370;6.770;2024-01-30T08:54:18;38.50;;;26.85;;
48849;SDS011;63210;53.370;6.770;2024-01-30T08:56:44;79.22;;;40.83;;
48849;SDS011;63210;53.370;6.770;2024-01-30T08:59:09;129.30;;;58.35;;
48849;SDS011;63210;53.370;6.770;2024-01-30T09:01:34;82.43;;;45.92;;
48849;SDS011;63210;53.370;6.770;2024-01-30T09:04:00;59.85;;;44.20;;
48849;SDS011;63210;53.370;6.770;2024-01-30T09:06:25;92.35;;;56.90;;
48849;SDS011;63210;53.370;6.770;2024-01-30T09:08:53;71.95;;;54.15;;
48849;SDS011;63210;53.370;6.770;2024-01-30T09:11:18;29.40;;;19.98;;
48849;SDS011;63210;53.370;6.770;2024-01-30T09:13:43;58.63;;;47.17;;
48849;SDS011;63210;53.370;6.770;2024-01-30T09:16:08;26.75;;;21.88;;
48849;SDS011;63210;53.370;6.770;2024-01-30T09:18:34;27.75;;;16.35;;
48849;SDS011;63210;53.370;6.770;2024-01-30T09:20:59;21.13;;;17.27;;
48849;SDS011;63210;53.370;6.770;2024-01-30T09:23:25;23.85;;;17.08;;
48849;SDS011;63210;53.370;6.770;2024-01-30T09:25:50;23.92;;;19.48;;
48849;SDS011;63210;53.370;6.770;2024-01-30T09:28:16;18.70;;;15.75;;
48849;SDS011;63210;53.370;6.770;2024-01-30T09:30:42;23.58;;;16.75;;
48849;SDS011;63210;53.370;6.770;2024-01-30T09:33:07;21.55;;;15.00;;
48849;SDS011;63210;53.370;6.770;2024-01-30T09:35:32;20.95;;;14.60;;
48849;SDS011;63210;53.370;6.770;2024-01-30T09:37:58;19.85;;;14.15;;
48849;SDS011;63210;53.370;6.770;2024-01-30T09:40:24;20.85;;;14.43;;
48849;SDS011;63210;53.370;6.770;2024-01-30T09:42:52;17.65;;;13.50;;
48849;SDS011;63210;53.370;6.770;2024-01-30T09:45:19;18.88;;;13.40;;
48849;SDS011;63210;53.370;6.770;2024-01-30T09:47:45;18.60;;;12.77;;
48849;SDS011;63210;53.370;6.770;2024-01-30T09:50:11;19.25;;;13.77;;
48849;SDS011;63210;53.370;6.770;2024-01-30T09:52:36;20.40;;;13.65;;
48849;SDS011;63210;53.370;6.770;2024-01-30T09:55:02;19.60;;;13.00;;
48849;SDS011;63210;53.370;6.770;2024-01-30T09:57:27;18.77;;;12.95;;
48849;SDS011;63210;53.370;6.770;2024-01-30T09:59:53;23.42;;;12.25;;
48849;SDS011;63210;53.370;6.770;2024-01-30T10:02:21;21.23;;;11.82;;
48849;SDS011;63210;53.370;6.770;2024-01-30T10:04:47;19.88;;;11.40;;
48849;SDS011;63210;53.370;6.770;2024-01-30T10:07:13;18.70;;;12.65;;
48849;SDS011;63210;53.370;6.770;2024-01-30T10:09:39;17.33;;;11.68;;
48849;SDS011;63210;53.370;6.770;2024-01-30T10:12:04;17.17;;;11.13;;
48849;SDS011;63210;53.370;6.770;2024-01-30T10:14:30;17.05;;;11.73;;
48849;SDS011;63210;53.370;6.770;2024-01-30T10:16:57;21.58;;;12.63;;
48849;SDS011;63210;53.370;6.770;2024-01-30T10:19:22;20.05;;;13.43;;
48849;SDS011;63210;53.370;6.770;2024-01-30T10:21:47;17.10;;;11.27;;
48849;SDS011;63210;53.370;6.770;2024-01-30T10:24:13;20.48;;;12.90;;
48849;SDS011;63210;53.370;6.770;2024-01-30T10:26:39;18.85;;;12.60;;
48849;SDS011;63210;53.370;6.770;2024-01-30T10:29:04;15.95;;;11.82;;
48849;SDS011;63210;53.370;6.770;2024-01-30T10:31:30;17.98;;;12.60;;
48849;SDS011;63210;53.370;6.770;2024-01-30T10:33:55;18.75;;;12.20;;
48849;SDS011;63210;53.370;6.770;2024-01-30T10:36:20;22.52;;;13.43;;
48849;SDS011;63210;53.370;6.770;2024-01-30T10:38:49;16.38;;;11.95;;
48849;SDS011;63210;53.370;6.770;2024-01-30T10:41:16;15.82;;;11.52;;
48849;SDS011;63210;53.370;6.770;2024-01-30T10:43:43;15.98;;;11.15;;
48849;SDS011;63210;53.370;6.770;2024-01-30T10:46:19;20.38;;;12.38;;
48849;SDS011;63210;53.370;6.770;2024-01-30T10:48:46;18.45;;;11.75;;
48849;SDS011;63210;53.370;6.770;2024-01-30T10:51:14;16.75;;;11.57;;
48849;SDS011;63210;53.370;6.770;2024-01-30T10:53:39;20.50;;;11.45;;
48849;SDS011;63210;53.370;6.770;2024-01-30T10:56:04;17.83;;;11.82;;
48849;SDS011;63210;53.370;6.770;2024-01-30T10:58:30;19.10;;;11.73;;
48849;SDS011;63210;53.370;6.770;2024-01-30T11:00:55;16.33;;;11.57;;
48849;SDS011;63210;53.370;6.770;2024-01-30T11:03:21;19.33;;;12.48;;
48849;SDS011;63210;53.370;6.770;2024-01-30T11:05:50;20.25;;;13.02;;
48849;SDS011;63210;53.370;6.770;2024-01-30T11:08:22;20.73;;;12.57;;
48849;SDS011;63210;53.370;6.770;2024-01-30T11:10:47;17.40;;;10.95;;
48849;SDS011;63210;53.370;6.770;2024-01-30T11:13:13;19.35;;;10.98;;
48849;SDS011;63210;53.370;6.770;2024-01-30T11:15:38;15.43;;;11.15;;
48849;SDS011;63210;53.370;6.770;2024-01-30T11:18:03;12.68;;;9.50;;
48849;SDS011;63210;53.370;6.770;2024-01-30T11:20:29;17.60;;;9.95;;
48849;SDS011;63210;53.370;6.770;2024-01-30T11:22:58;16.23;;;11.20;;
48849;SDS011;63210;53.370;6.770;2024-01-30T11:25:24;18.80;;;11.02;;
48849;SDS011;63210;53.370;6.770;2024-01-30T11:27:50;16.50;;;11.02;;
48849;SDS011;63210;53.370;6.770;2024-01-30T11:30:22;17.92;;;9.95;;
48849;SDS011;63210;53.370;6.770;2024-01-30T11:35:46;11.88;;;7.93;;
48849;SDS011;63210;53.370;6.770;2024-01-30T11:38:15;15.00;;;7.72;;
48849;SDS011;63210;53.370;6.770;2024-01-30T11:40:40;13.65;;;7.25;;
48849;SDS011;63210;53.370;6.770;2024-01-30T11:43:06;10.35;;;6.50;;
48849;SDS011;63210;53.370;6.770;2024-01-30T11:45:32;15.43;;;7.32;;
48849;SDS011;63210;53.370;6.770;2024-01-30T11:47:57;17.27;;;7.60;;
48849;SDS011;63210;53.370;6.770;2024-01-30T11:50:25;9.88;;;5.43;;
48849;SDS011;63210;53.370;6.770;2024-01-30T11:52:50;13.73;;;6.80;;
48849;SDS011;63210;53.370;6.770;2024-01-30T11:55:15;11.43;;;5.55;;
48849;SDS011;63210;53.370;6.770;2024-01-30T11:57:41;17.13;;;5.70;;
48849;SDS011;63210;53.370;6.770;2024-01-30T12:00:13;12.63;;;5.95;;
48849;SDS011;63210;53.370;6.770;2024-01-30T12:02:39;13.55;;;6.55;;
48849;SDS011;63210;53.370;6.770;2024-01-30T12:05:04;11.45;;;4.88;;
48849;SDS011;63210;53.370;6.770;2024-01-30T12:07:30;9.32;;;4.28;;
48849;SDS011;63210;53.370;6.770;2024-01-30T12:09:55;13.20;;;4.35;;
48849;SDS011;63210;53.370;6.770;2024-01-30T12:12:22;14.93;;;4.45;;
48849;SDS011;63210;53.370;6.770;2024-01-30T12:14:47;10.98;;;4.90;;
48849;SDS011;63210;53.370;6.770;2024-01-30T12:17:22;10.48;;;4.97;;
48849;SDS011;63210;53.370;6.770;2024-01-30T12:19:48;10.98;;;4.32;;
48849;SDS011;63210;53.370;6.770;2024-01-30T12:22:13;11.38;;;4.35;;
48849;SDS011;63210;53.370;6.770;2024-01-30T12:24:39;10.50;;;3.92;;
48849;SDS011;63210;53.370;6.770;2024-01-30T12:27:04;9.65;;;4.00;;
48849;SDS011;63210;53.370;6.770;2024-01-30T12:29:31;7.75;;;3.65;;
48849;SDS011;63210;53.370;6.770;2024-01-30T12:31:57;11.48;;;2.45;;
48849;SDS011;63210;53.370;6.770;2024-01-30T12:34:22;4.00;;;2.40;;
48849;SDS011;63210;53.370;6.770;2024-01-30T12:36:49;4.15;;;1.80;;
48849;SDS011;63210;53.370;6.770;2024-01-30T12:39:15;3.78;;;1.77;;
48849;SDS011;63210;53.370;6.770;2024-01-30T12:41:40;4.70;;;2.10;;
48849;SDS011;63210;53.370;6.770;2024-01-30T12:44:05;4.43;;;2.40;;
48849;SDS011;63210;53.370;6.770;2024-01-30T12:46:34;5.20;;;2.40;;
48849;SDS011;63210;53.370;6.770;2024-01-30T12:48:59;3.97;;;2.30;;
48849;SDS011;63210;53.370;6.770;2024-01-30T12:51:25;3.38;;;2.05;;
48849;SDS011;63210;53.370;6.770;2024-01-30T12:53:50;2.53;;;1.48;;
48849;SDS011;63210;53.370;6.770;2024-01-30T12:56:15;3.75;;;1.20;;
48849;SDS011;63210;53.370;6.770;2024-01-30T12:58:41;4.15;;;1.25;;
48849;SDS011;63210;53.370;6.770;2024-01-30T13:01:08;2.15;;;1.15;;
48849;SDS011;63210;53.370;6.770;2024-01-30T13:03:33;3.78;;;1.10;;
48849;SDS011;63210;53.370;6.770;2024-01-30T13:05:58;2.80;;;1.40;;
48849;SDS011;63210;53.370;6.770;2024-01-30T13:08:26;2.65;;;1.08;;
48849;SDS011;63210;53.370;6.770;2024-01-30T13:10:51;6.25;;;1.10;;
48849;SDS011;63210;53.370;6.770;2024-01-30T13:13:17;2.22;;;0.85;;
48849;SDS011;63210;53.370;6.770;2024-01-30T13:15:42;2.30;;;1.00;;
48849;SDS011;63210;53.370;6.770;2024-01-30T13:18:07;1.42;;;0.85;;
48849;SDS011;63210;53.370;6.770;2024-01-30T13:20:33;4.63;;;1.10;;
48849;SDS011;63210;53.370;6.770;2024-01-30T13:22:58;2.63;;;1.10;;
48849;SDS011;63210;53.370;6.770;2024-01-30T13:25:23;3.28;;;0.90;;
48849;SDS011;63210;53.370;6.770;2024-01-30T13:27:48;2.47;;;1.00;;
48849;SDS011;63210;53.370;6.770;2024-01-30T13:30:14;1.52;;;0.88;;
48849;SDS011;63210;53.370;6.770;2024-01-30T13:32:39;2.00;;;0.98;;
48849;SDS011;63210;53.370;6.770;2024-01-30T13:35:06;1.55;;;1.10;;
48849;SDS011;63210;53.370;6.770;2024-01-30T13:37:32;3.63;;;1.27;;
48849;SDS011;63210;53.370;6.770;2024-01-30T13:39:57;3.05;;;1.30;;
48849;SDS011;63210;53.370;6.770;2024-01-30T13:42:22;1.10;;;1.10;;
48849;SDS011;63210;53.370;6.770;2024-01-30T13:44:48;3.50;;;1.15;;
48849;SDS011;63210;53.370;6.770;2024-01-30T13:47:13;3.00;;;1.27;;
48849;SDS011;63210;53.370;6.770;2024-01-30T13:49:39;5.63;;;1.13;;
48849;SDS011;63210;53.370;6.770;2024-01-30T13:52:04;29.80;;;14.85;;
48849;SDS011;63210;53.370;6.770;2024-01-30T13:54:30;16.02;;;9.43;;
48849;SDS011;63210;53.370;6.770;2024-01-30T13:56:55;57.03;;;33.67;;
48849;SDS011;63210;53.370;6.770;2024-01-30T13:59:21;43.03;;;22.85;;
48849;SDS011;63210;53.370;6.770;2024-01-30T14:01:49;59.10;;;30.48;;
48849;SDS011;63210;53.370;6.770;2024-01-30T14:04:15;65.95;;;31.75;;
48849;SDS011;63210;53.370;6.770;2024-01-30T14:06:40;15.13;;;8.68;;
48849;SDS011;63210;53.370;6.770;2024-01-30T14:09:05;5.65;;;4.70;;
48849;SDS011;63210;53.370;6.770;2024-01-30T14:11:31;4.85;;;2.50;;
48849;SDS011;63210;53.370;6.770;2024-01-30T14:13:56;6.60;;;4.50;;
48849;SDS011;63210;53.370;6.770;2024-01-30T14:16:21;9.38;;;5.60;;
48849;SDS011;63210;53.370;6.770;2024-01-30T14:18:47;6.32;;;4.72;;